createdAt,value
2018-05-16T00:00:45.170Z,0.00
2018-05-16T00:01:45.335Z,0.00
2018-05-16T00:02:45.166Z,0.00
2018-05-16T00:03:45.165Z,0.00
2018-05-16T00:04:45.167Z,0.00
2018-05-16T00:05:45.164Z,0.00
2018-05-16T00:06:45.164Z,0.00
2018-05-16T00:07:45.235Z,0.00
2018-05-16T00:08:45.168Z,0.00
2018-05-16T00:09:45.164Z,0.00
2018-05-16T00:10:45.163Z,0.00
2018-05-16T00:11:45.166Z,0.00
2018-05-16T00:12:45.221Z,0.00
2018-05-16T00:13:45.179Z,0.00
2018-05-16T00:14:45.165Z,0.00
2018-05-16T00:15:45.162Z,0.00
2018-05-16T00:16:45.206Z,0.00
2018-05-16T00:17:45.162Z,0.00
2018-05-16T00:18:45.166Z,0.00
2018-05-16T00:19:45.177Z,0.00
2018-05-16T00:20:45.162Z,0.00
2018-05-16T00:21:45.205Z,0.00
2018-05-16T00:22:45.162Z,0.00
2018-05-16T00:23:45.157Z,0.00
2018-05-16T00:24:45.158Z,0.00
2018-05-16T00:25:45.162Z,0.00
2018-05-16T00:26:45.194Z,0.00
2018-05-16T00:27:45.168Z,0.00
2018-05-16T00:28:45.158Z,0.00
2018-05-16T00:29:45.155Z,0.00
2018-05-16T00:30:45.161Z,0.00
2018-05-16T00:31:45.306Z,0.00
2018-05-16T00:32:45.864Z,0.00
2018-05-16T00:33:45.155Z,0.00
2018-05-16T00:34:45.179Z,0.00
2018-05-16T00:35:45.151Z,0.00
2018-05-16T00:36:45.156Z,0.00
2018-05-16T00:37:45.233Z,0.00
2018-05-16T00:38:45.156Z,0.00
2018-05-16T00:39:45.188Z,0.00
2018-05-16T00:40:45.151Z,0.00
2018-05-16T00:41:45.154Z,0.00
2018-05-16T00:42:45.190Z,0.00
2018-05-16T00:43:45.148Z,0.00
2018-05-16T00:44:45.165Z,0.00
2018-05-16T00:45:45.149Z,0.00
2018-05-16T00:46:45.148Z,0.00
2018-05-16T00:47:45.194Z,0.00
2018-05-16T00:48:45.155Z,0.00
2018-05-16T00:49:45.144Z,0.00
2018-05-16T00:50:45.145Z,0.00
2018-05-16T00:51:45.146Z,0.00
2018-05-16T00:52:45.194Z,0.00
2018-05-16T00:53:45.145Z,0.00
2018-05-16T00:54:45.145Z,0.00
2018-05-16T00:55:45.145Z,0.00
2018-05-16T00:56:45.149Z,0.00
2018-05-16T00:57:45.196Z,0.00
2018-05-16T00:58:45.149Z,0.00
2018-05-16T00:59:45.143Z,0.00
2018-05-16T01:00:45.144Z,0.00
2018-05-16T01:01:45.149Z,0.00
2018-05-16T01:02:45.193Z,0.00
2018-05-16T01:03:45.145Z,0.00
2018-05-16T01:04:45.140Z,0.00
2018-05-16T01:05:45.142Z,0.00
2018-05-16T01:06:45.183Z,0.00
2018-05-16T01:07:45.142Z,0.00
2018-05-16T01:08:45.141Z,0.00
2018-05-16T01:09:45.136Z,0.00
2018-05-16T01:10:45.138Z,0.00
2018-05-16T01:11:45.180Z,0.00
2018-05-16T01:12:45.136Z,0.00
2018-05-16T01:13:45.137Z,0.00
2018-05-16T01:14:45.320Z,0.00
2018-05-16T01:15:45.143Z,0.00
2018-05-16T01:16:53.076Z,0.00
2018-05-16T01:17:45.133Z,0.00
2018-05-16T01:18:45.134Z,0.00
2018-05-16T01:19:45.573Z,0.00
2018-05-16T01:20:45.133Z,0.00
2018-05-16T01:21:45.185Z,0.00
2018-05-16T01:22:45.150Z,0.00
2018-05-16T01:23:45.132Z,0.00
2018-05-16T01:24:45.130Z,0.00
2018-05-16T01:25:45.139Z,0.00
2018-05-16T01:26:45.168Z,0.00
2018-05-16T01:27:45.125Z,0.00
2018-05-16T01:28:45.130Z,0.00
2018-05-16T01:29:45.155Z,0.00
2018-05-16T01:30:45.126Z,0.00
2018-05-16T01:31:56.070Z,0.00
2018-05-16T01:32:45.130Z,0.00
2018-05-16T01:33:45.122Z,0.00
2018-05-16T01:34:45.124Z,0.00
2018-05-16T01:35:45.123Z,0.00
2018-05-16T01:36:45.195Z,0.00
2018-05-16T01:37:45.124Z,0.00
2018-05-16T01:38:45.120Z,0.00
2018-05-16T01:39:45.334Z,0.00
2018-05-16T01:40:45.121Z,0.00
2018-05-16T01:41:45.167Z,0.00
2018-05-16T01:42:46.004Z,0.00
2018-05-16T01:43:45.122Z,0.00
2018-05-16T01:44:45.120Z,0.00
2018-05-16T01:45:45.121Z,0.00
2018-05-16T01:46:45.168Z,0.00
2018-05-16T01:47:45.116Z,0.00
2018-05-16T01:48:45.117Z,0.00
2018-05-16T01:49:45.116Z,0.00
2018-05-16T01:50:45.142Z,0.00
2018-05-16T01:51:45.164Z,0.00
2018-05-16T01:52:45.121Z,0.00
2018-05-16T01:53:45.113Z,0.00
2018-05-16T01:54:45.114Z,0.00
2018-05-16T01:55:45.125Z,0.00
2018-05-16T01:56:45.166Z,0.00
2018-05-16T01:57:45.138Z,0.00
2018-05-16T01:58:45.111Z,0.00
2018-05-16T01:59:45.106Z,0.00
2018-05-16T02:00:45.131Z,0.00
2018-05-16T02:01:45.113Z,0.00
2018-05-16T02:03:06.154Z,0.00
2018-05-16T02:03:45.110Z,0.00
2018-05-16T02:04:45.107Z,0.00
2018-05-16T02:05:45.107Z,0.00
2018-05-16T02:06:45.109Z,0.00
2018-05-16T02:07:45.180Z,0.00
2018-05-16T02:08:45.109Z,0.00
2018-05-16T02:09:45.109Z,0.00
2018-05-16T02:10:45.105Z,0.00
2018-05-16T02:11:45.103Z,0.00
2018-05-16T02:12:45.109Z,0.00
2018-05-16T02:13:45.144Z,0.00
2018-05-16T02:14:45.111Z,0.00
2018-05-16T02:15:45.105Z,0.00
2018-05-16T02:16:45.100Z,0.00
2018-05-16T02:17:45.100Z,0.00
2018-05-16T02:18:47.392Z,0.00
2018-05-16T02:19:45.099Z,0.00
2018-05-16T02:20:45.096Z,0.00
2018-05-16T02:21:45.106Z,0.00
2018-05-16T02:22:45.096Z,0.00
2018-05-16T02:23:45.096Z,0.00
2018-05-16T02:24:45.145Z,0.00
2018-05-16T02:25:45.094Z,0.00
2018-05-16T02:26:45.096Z,0.00
2018-05-16T02:27:45.093Z,0.00
2018-05-16T02:28:45.094Z,0.00
2018-05-16T02:29:45.134Z,0.00
2018-05-16T02:30:45.095Z,0.00
2018-05-16T02:31:45.120Z,0.00
2018-05-16T02:32:45.086Z,0.00
2018-05-16T02:33:45.087Z,0.00
2018-05-16T02:34:45.153Z,0.00
2018-05-16T02:35:45.091Z,0.00
2018-05-16T02:36:45.088Z,0.00
2018-05-16T02:37:45.104Z,0.00
2018-05-16T02:38:45.087Z,0.00
2018-05-16T02:39:45.083Z,0.00
2018-05-16T02:40:45.128Z,0.00
2018-05-16T02:41:45.088Z,0.00
2018-05-16T02:42:45.084Z,0.00
2018-05-16T02:43:45.092Z,0.00
2018-05-16T02:44:45.086Z,0.00
2018-05-16T02:45:48.577Z,0.00
2018-05-16T02:46:45.117Z,0.00
2018-05-16T02:47:45.089Z,0.00
2018-05-16T02:48:45.720Z,0.00
2018-05-16T02:49:45.081Z,0.00
2018-05-16T02:50:56.073Z,0.00
2018-05-16T02:51:45.081Z,0.00
2018-05-16T02:52:45.086Z,0.00
2018-05-16T02:53:45.078Z,0.00
2018-05-16T02:54:45.079Z,0.00
2018-05-16T02:55:45.131Z,0.00
2018-05-16T02:56:45.077Z,0.00
2018-05-16T02:57:45.082Z,0.00
2018-05-16T02:58:45.138Z,0.00
2018-05-16T02:59:45.076Z,0.00
2018-05-16T03:00:45.115Z,0.00
2018-05-16T03:01:45.078Z,0.00
2018-05-16T03:02:45.062Z,0.00
2018-05-16T03:03:45.065Z,0.00
2018-05-16T03:04:45.061Z,0.00
2018-05-16T03:05:45.105Z,0.00
2018-05-16T03:06:45.065Z,0.00
2018-05-16T03:07:45.065Z,0.00
2018-05-16T03:08:45.061Z,0.00
2018-05-16T03:09:45.701Z,0.00
2018-05-16T03:10:45.121Z,0.00
2018-05-16T03:11:45.058Z,0.00
2018-05-16T03:12:45.062Z,0.00
2018-05-16T03:13:45.050Z,0.00
2018-05-16T03:14:45.065Z,0.00
2018-05-16T03:15:45.054Z,0.00
2018-05-16T03:16:45.102Z,0.00
2018-05-16T03:17:45.051Z,0.00
2018-05-16T03:18:45.050Z,0.00
2018-05-16T03:19:45.060Z,5.63
2018-05-16T03:20:45.059Z,5.63
2018-05-16T03:21:45.095Z,5.63
2018-05-16T03:22:45.056Z,5.63
2018-05-16T03:23:45.051Z,5.63
2018-05-16T03:24:45.115Z,5.63
2018-05-16T03:25:45.044Z,5.63
2018-05-16T03:26:45.101Z,5.63
2018-05-16T03:27:45.052Z,5.63
2018-05-16T03:28:45.048Z,5.63
2018-05-16T03:29:45.053Z,11.25
2018-05-16T03:30:45.049Z,11.25
2018-05-16T03:31:45.092Z,11.25
2018-05-16T03:32:45.049Z,16.88
2018-05-16T03:33:45.054Z,16.88
2018-05-16T03:34:45.045Z,16.88
2018-05-16T03:35:45.098Z,16.88
2018-05-16T03:36:45.092Z,16.88
2018-05-16T03:37:45.073Z,16.88
2018-05-16T03:38:45.036Z,16.88
2018-05-16T03:39:45.042Z,16.88
2018-05-16T03:40:45.111Z,16.88
2018-05-16T03:41:45.034Z,16.88
2018-05-16T03:42:45.037Z,16.88
2018-05-16T03:43:45.040Z,16.88
2018-05-16T03:44:45.036Z,16.88
2018-05-16T03:45:45.035Z,16.88
2018-05-16T03:46:45.565Z,16.88
2018-05-16T03:47:45.039Z,22.50
2018-05-16T03:48:45.034Z,22.50
2018-05-16T03:49:45.031Z,22.50
2018-05-16T03:50:45.401Z,22.50
2018-05-16T03:51:45.027Z,28.13
2018-05-16T03:52:45.027Z,28.13
2018-05-16T03:53:45.032Z,28.13
2018-05-16T03:54:45.031Z,28.13
2018-05-16T03:55:45.925Z,28.13
2018-05-16T03:56:45.077Z,28.13
2018-05-16T03:57:45.023Z,28.13
2018-05-16T03:58:45.023Z,28.13
2018-05-16T03:59:45.032Z,28.13
2018-05-16T04:00:45.043Z,22.50
2018-05-16T04:01:56.068Z,22.50
2018-05-16T04:02:45.024Z,22.50
2018-05-16T04:03:45.102Z,22.50
2018-05-16T04:04:45.019Z,22.50
2018-05-16T04:05:45.015Z,28.13
2018-05-16T04:06:45.015Z,33.75
2018-05-16T04:07:45.072Z,39.38
2018-05-16T04:08:45.008Z,45.00
2018-05-16T04:09:45.015Z,50.63
2018-05-16T04:10:45.012Z,56.25
2018-05-16T04:11:45.035Z,56.25
2018-05-16T04:12:45.169Z,67.50
2018-05-16T04:13:45.010Z,78.75
2018-05-16T04:14:45.035Z,84.38
2018-05-16T04:15:45.011Z,95.63
2018-05-16T04:16:45.009Z,106.88
2018-05-16T04:17:45.010Z,118.13
2018-05-16T04:18:45.058Z,118.13
2018-05-16T04:19:45.001Z,112.50
2018-05-16T04:20:45.011Z,101.25
2018-05-16T04:21:44.998Z,101.25
2018-05-16T04:22:45.003Z,106.88
2018-05-16T04:23:45.054Z,106.88
2018-05-16T04:24:45.001Z,112.50
2018-05-16T04:25:45.649Z,112.50
2018-05-16T04:26:44.999Z,112.50
2018-05-16T04:27:44.999Z,112.50
2018-05-16T04:28:45.087Z,118.13
2018-05-16T04:29:45.003Z,135.00
2018-05-16T04:30:45.000Z,157.50
2018-05-16T04:31:44.992Z,185.63
2018-05-16T04:32:45.015Z,219.38
2018-05-16T04:33:45.044Z,264.38
2018-05-16T04:34:44.995Z,315.00
2018-05-16T04:35:45.002Z,348.75
2018-05-16T04:36:44.992Z,348.75
2018-05-16T04:37:45.001Z,343.13
2018-05-16T04:38:45.041Z,326.25
2018-05-16T04:39:44.987Z,298.13
2018-05-16T04:40:44.997Z,286.88
2018-05-16T04:41:44.993Z,281.25
2018-05-16T04:42:44.991Z,275.63
2018-05-16T04:43:45.038Z,286.88
2018-05-16T04:44:44.988Z,309.38
2018-05-16T04:45:44.988Z,343.13
2018-05-16T04:46:44.994Z,360.00
2018-05-16T04:47:44.989Z,360.00
2018-05-16T04:48:45.147Z,326.25
2018-05-16T04:49:44.991Z,281.25
2018-05-16T04:50:44.994Z,236.25
2018-05-16T04:51:44.992Z,219.38
2018-05-16T04:52:45.075Z,219.38
2018-05-16T04:53:44.985Z,225.00
2018-05-16T04:54:45.030Z,230.63
2018-05-16T04:55:45.838Z,241.88
2018-05-16T04:56:44.987Z,258.75
2018-05-16T04:57:44.986Z,281.25
2018-05-16T04:58:44.992Z,298.13
2018-05-16T04:59:45.371Z,298.13
2018-05-16T05:00:44.990Z,281.25
2018-05-16T05:01:44.986Z,253.13
2018-05-16T05:02:44.983Z,219.38
2018-05-16T05:03:44.987Z,191.25
2018-05-16T05:04:45.035Z,185.63
2018-05-16T05:05:45.046Z,196.88
2018-05-16T05:06:45.000Z,208.13
2018-05-16T05:07:44.991Z,213.75
2018-05-16T05:08:44.995Z,208.13
2018-05-16T05:09:44.999Z,196.88
2018-05-16T05:10:52.568Z,185.63
2018-05-16T05:11:44.990Z,174.38
2018-05-16T05:12:44.981Z,180.00
2018-05-16T05:13:44.992Z,191.25
2018-05-16T05:14:44.984Z,202.50
2018-05-16T05:15:45.044Z,208.13
2018-05-16T05:16:45.008Z,208.13
2018-05-16T05:17:44.989Z,202.50
2018-05-16T05:18:44.987Z,202.50
2018-05-16T05:19:44.981Z,191.25
2018-05-16T05:20:59.073Z,185.63
2018-05-16T05:21:44.991Z,180.00
2018-05-16T05:22:44.990Z,185.63
2018-05-16T05:23:45.237Z,225.00
2018-05-16T05:24:44.984Z,275.63
2018-05-16T05:25:52.649Z,247.50
2018-05-16T05:26:45.006Z,208.13
2018-05-16T05:27:44.981Z,185.63
2018-05-16T05:28:44.984Z,180.00
2018-05-16T05:29:44.981Z,191.25
2018-05-16T05:30:45.709Z,219.38
2018-05-16T05:31:44.987Z,258.75
2018-05-16T05:32:44.986Z,253.13
2018-05-16T05:33:44.984Z,241.88
2018-05-16T05:34:44.996Z,219.38
2018-05-16T05:35:45.045Z,202.50
2018-05-16T05:36:44.989Z,202.50
2018-05-16T05:37:45.430Z,213.75
2018-05-16T05:38:44.984Z,236.25
2018-05-16T05:39:44.983Z,309.38
2018-05-16T05:40:46.568Z,371.25
2018-05-16T05:41:44.990Z,410.63
2018-05-16T05:42:44.979Z,433.13
2018-05-16T05:43:44.984Z,427.50
2018-05-16T05:44:44.987Z,393.75
2018-05-16T05:48:48.339Z,545.63
2018-05-16T05:49:48.288Z,556.88
2018-05-16T05:55:58.329Z,343.13
2018-05-16T05:56:23.229Z,427.50
2018-05-16T05:57:23.244Z,438.75
2018-05-16T05:58:23.228Z,450.00
2018-05-16T05:59:23.225Z,450.00
2018-05-16T06:00:23.233Z,405.00
2018-05-16T06:01:23.300Z,343.13
2018-05-16T06:02:23.229Z,298.13
2018-05-16T06:03:23.229Z,286.88
2018-05-16T06:04:23.249Z,354.38
2018-05-16T06:05:23.313Z,500.63
2018-05-16T06:07:54.869Z,641.25
2018-05-16T06:08:54.825Z,568.13
2018-05-16T06:09:54.830Z,556.88
2018-05-16T06:10:54.831Z,601.88
2018-05-16T06:11:54.988Z,669.38
2018-05-16T06:12:54.833Z,663.75
2018-05-16T06:13:54.833Z,601.88
2018-05-16T06:14:54.834Z,613.13
2018-05-16T06:15:54.839Z,585.00
2018-05-16T06:16:54.898Z,562.50
2018-05-16T06:17:54.840Z,540.00
2018-05-16T06:18:54.871Z,545.63
2018-05-16T06:19:54.862Z,495.00
2018-05-16T06:20:54.838Z,371.25
2018-05-16T06:21:54.882Z,309.38
2018-05-16T06:22:54.859Z,292.50
2018-05-16T06:23:54.840Z,286.88
2018-05-16T06:24:54.851Z,298.13
2018-05-16T06:25:54.840Z,354.38
2018-05-16T06:26:55.012Z,455.63
2018-05-16T06:27:54.900Z,500.63
2018-05-16T06:28:54.848Z,489.38
2018-05-16T06:29:54.854Z,472.50
2018-05-16T06:30:54.847Z,466.88
2018-05-16T06:31:54.901Z,455.63
2018-05-16T06:32:54.855Z,416.25
2018-05-16T06:33:54.848Z,382.50
2018-05-16T06:34:54.852Z,388.13
2018-05-16T06:35:55.555Z,410.63
2018-05-16T06:36:55.488Z,444.38
2018-05-16T06:37:54.857Z,483.75
2018-05-16T06:38:54.860Z,534.38
2018-05-16T06:39:54.870Z,590.63
2018-05-16T06:40:54.853Z,669.38
2018-05-16T06:45:19.845Z,646.88
2018-05-16T06:45:58.244Z,658.13
2018-05-16T06:46:58.189Z,725.63
2018-05-16T06:47:58.252Z,821.25
2018-05-16T06:48:58.189Z,871.88
2018-05-16T06:49:58.220Z,871.88
2018-05-16T06:50:58.193Z,843.75
2018-05-16T06:51:58.185Z,793.13
2018-05-16T06:54:47.951Z,545.63
2018-05-16T06:55:30.785Z,579.38
2018-05-16T06:56:31.356Z,624.38
2018-05-16T06:57:45.310Z,607.50
2018-05-16T06:58:30.414Z,607.50
2018-05-16T06:59:30.236Z,618.75
2018-05-16T07:00:29.850Z,590.63
2018-05-16T07:01:29.873Z,523.13
2018-05-16T07:02:51.077Z,483.75
2018-05-16T07:03:29.859Z,478.13
2018-05-16T07:04:29.860Z,489.38
2018-05-16T07:05:29.856Z,461.25
2018-05-16T07:06:29.855Z,416.25
2018-05-16T07:07:29.896Z,438.75
2018-05-16T07:08:29.872Z,506.25
2018-05-16T07:09:29.865Z,506.25
2018-05-16T07:10:29.864Z,438.75
2018-05-16T07:11:29.868Z,399.38
2018-05-16T07:14:04.637Z,427.50
2018-05-16T07:15:01.558Z,444.38
2018-05-16T07:16:01.562Z,461.25
2018-05-16T07:17:02.120Z,534.38
2018-05-16T07:18:01.570Z,630.00
2018-05-16T07:19:01.572Z,714.38
2018-05-16T07:20:01.565Z,708.75
2018-05-16T07:21:01.567Z,714.38
2018-05-16T07:22:02.129Z,731.25
2018-05-16T07:23:01.575Z,753.75
2018-05-16T07:24:01.579Z,810.00
2018-05-16T07:25:01.574Z,855.00
2018-05-16T07:26:01.579Z,810.00
2018-05-16T07:27:01.626Z,680.63
2018-05-16T07:28:01.574Z,545.63
2018-05-16T07:29:01.578Z,466.88
2018-05-16T07:30:01.580Z,410.63
2018-05-16T07:31:01.583Z,405.00
2018-05-16T07:32:01.633Z,461.25
2018-05-16T07:33:01.587Z,450.00
2018-05-16T07:34:01.711Z,433.13
2018-05-16T07:35:01.600Z,461.25
2018-05-16T07:36:01.740Z,478.13
2018-05-16T07:37:01.588Z,500.63
2018-05-16T07:38:01.671Z,495.00
2018-05-16T07:39:01.592Z,438.75
2018-05-16T07:40:01.600Z,472.50
2018-05-16T07:41:01.644Z,573.75
2018-05-16T07:45:04.996Z,478.13
2018-05-16T07:46:04.953Z,455.63
2018-05-16T07:47:05.150Z,511.88
2018-05-16T07:48:04.961Z,607.50
2018-05-16T07:49:04.960Z,680.63
2018-05-16T07:50:04.959Z,697.50
2018-05-16T07:51:04.976Z,742.50
2018-05-16T07:52:19.059Z,956.25
2018-05-16T07:53:04.970Z,1080.00
2018-05-16T07:54:04.989Z,911.25
2018-05-16T07:55:04.974Z,900.00
2018-05-16T07:56:05.015Z,1068.75
2018-05-16T07:57:08.066Z,1074.38
2018-05-16T07:58:05.849Z,945.00
2018-05-16T07:59:05.012Z,900.00
2018-05-16T08:00:04.978Z,978.75
2018-05-16T08:01:04.995Z,1085.63
2018-05-16T08:02:05.030Z,1164.38
2018-05-16T08:03:04.991Z,1237.50
2018-05-16T08:04:04.991Z,1271.25
2018-05-16T08:05:06.646Z,1282.50
2018-05-16T08:06:04.991Z,1338.75
2018-05-16T08:07:05.040Z,1468.13
2018-05-16T08:08:05.004Z,1546.88
2018-05-16T08:09:05.007Z,1569.38
2018-05-16T08:10:05.017Z,1535.63
2018-05-16T08:11:05.053Z,1468.13
2018-05-16T08:12:05.007Z,1372.50
2018-05-16T08:13:05.004Z,1276.88
2018-05-16T08:14:05.005Z,1153.13
2018-05-16T08:15:05.027Z,1046.25
2018-05-16T08:16:05.061Z,1023.75
2018-05-16T08:17:05.030Z,950.63
2018-05-16T08:18:05.032Z,843.75
2018-05-16T08:19:05.021Z,776.25
2018-05-16T08:20:05.031Z,680.63
2018-05-16T08:21:05.084Z,568.13
2018-05-16T08:22:05.030Z,517.50
2018-05-16T08:23:05.037Z,551.25
2018-05-16T08:24:05.043Z,635.63
2018-05-16T08:25:05.048Z,736.88
2018-05-16T08:26:05.043Z,843.75
2018-05-16T08:27:05.088Z,911.25
2018-05-16T08:28:05.041Z,922.50
2018-05-16T08:29:05.060Z,950.63
2018-05-16T08:30:05.059Z,956.25
2018-05-16T08:31:07.172Z,826.88
2018-05-16T08:32:05.057Z,646.88
2018-05-16T08:33:05.067Z,455.63
2018-05-16T08:34:05.060Z,337.50
2018-05-16T08:35:05.063Z,281.25
2018-05-16T08:36:05.335Z,258.75
2018-05-16T08:37:05.073Z,309.38
2018-05-16T08:38:05.559Z,433.13
2018-05-16T08:39:05.070Z,630.00
2018-05-16T08:40:06.368Z,810.00
2018-05-16T08:41:34.924Z,939.38
2018-05-16T08:42:05.086Z,973.13
2018-05-16T08:43:05.145Z,978.75
2018-05-16T08:44:05.103Z,978.75
2018-05-16T08:45:05.098Z,967.50
2018-05-16T08:47:36.948Z,1260.00
2018-05-16T08:48:38.367Z,1389.38
2018-05-16T08:49:36.952Z,1378.13
2018-05-16T08:50:55.353Z,1400.63
2018-05-16T08:51:39.173Z,1496.25
2018-05-16T08:52:36.983Z,1642.50
2018-05-16T08:53:37.090Z,1749.38
2018-05-16T08:54:36.952Z,1867.50
2018-05-16T08:58:41.729Z,1518.75
2018-05-16T08:59:41.441Z,1282.50
2018-05-16T09:00:41.433Z,1141.88
2018-05-16T09:01:41.065Z,1068.75
2018-05-16T09:02:40.831Z,1018.13
2018-05-16T09:03:40.836Z,1215.00
2018-05-16T09:04:42.234Z,1490.63
2018-05-16T09:07:13.569Z,1265.63
2018-05-16T09:08:12.433Z,1068.75
2018-05-16T09:09:13.048Z,1006.88
2018-05-16T09:10:12.440Z,984.38
2018-05-16T09:11:26.591Z,956.25
2018-05-16T09:12:12.934Z,961.88
2018-05-16T09:13:12.892Z,1006.88
2018-05-16T09:14:12.434Z,1057.50
2018-05-16T09:15:12.442Z,1102.50
2018-05-16T09:16:12.760Z,1125.00
2018-05-16T09:17:12.503Z,1125.00
2018-05-16T09:18:12.450Z,1085.63
2018-05-16T09:19:12.440Z,1074.38
2018-05-16T09:20:12.448Z,1231.88
2018-05-16T09:21:21.082Z,1333.13
2018-05-16T09:22:13.392Z,1316.25
2018-05-16T09:23:12.466Z,1237.50
2018-05-16T09:24:12.453Z,1108.13
2018-05-16T09:25:12.487Z,1096.88
2018-05-16T09:26:16.260Z,1209.38
2018-05-16T09:27:12.578Z,1158.75
2018-05-16T09:28:12.471Z,1068.75
2018-05-16T09:29:12.485Z,1141.88
2018-05-16T09:30:12.514Z,1125.00
2018-05-16T09:36:25.514Z,534.38
2018-05-16T09:36:47.425Z,534.38
2018-05-16T09:37:47.427Z,630.00
2018-05-16T09:38:47.431Z,759.38
2018-05-16T09:39:47.429Z,748.13
2018-05-16T09:40:47.454Z,691.88
2018-05-16T09:41:52.521Z,731.25
2018-05-16T09:42:47.439Z,849.38
2018-05-16T09:43:48.398Z,984.38
2018-05-16T09:44:47.446Z,1012.50
2018-05-16T09:45:47.562Z,1018.13
2018-05-16T09:46:58.025Z,1063.13
2018-05-16T09:47:47.470Z,1226.25
2018-05-16T09:48:47.451Z,1333.13
2018-05-16T09:49:47.456Z,1366.88
2018-05-16T09:50:47.458Z,1473.75
2018-05-16T09:51:47.507Z,1659.38
2018-05-16T09:52:47.464Z,1845.00
2018-05-16T09:53:48.385Z,1991.25
2018-05-16T09:54:47.484Z,2086.88
2018-05-16T09:55:47.567Z,2103.75
2018-05-16T09:56:47.524Z,2058.75
2018-05-16T09:57:47.479Z,1940.63
2018-05-16T09:58:47.489Z,1884.38
2018-05-16T09:59:47.497Z,1833.75
2018-05-16T10:00:47.502Z,1811.25
2018-05-16T10:01:47.568Z,1884.38
2018-05-16T10:02:47.593Z,2019.38
2018-05-16T10:03:48.072Z,2283.75
2018-05-16T10:04:47.587Z,2143.13
2018-05-16T10:05:47.516Z,1816.88
2018-05-16T10:06:53.174Z,1530.00
2018-05-16T10:07:47.525Z,1507.50
2018-05-16T10:08:47.535Z,1636.88
2018-05-16T10:09:47.550Z,1681.88
2018-05-16T10:10:47.539Z,1597.50
2018-05-16T10:13:20.046Z,1490.63
2018-05-16T10:14:19.222Z,1530.00
2018-05-16T10:15:19.228Z,1659.38
2018-05-16T10:16:19.239Z,1552.50
2018-05-16T10:17:33.314Z,1310.63
2018-05-16T10:18:19.242Z,1141.88
2018-05-16T10:19:19.251Z,1018.13
2018-05-16T10:20:19.369Z,922.50
2018-05-16T10:21:19.259Z,1035.00
2018-05-16T10:25:44.675Z,1721.25
2018-05-16T10:26:22.609Z,1878.75
2018-05-16T10:27:23.186Z,1878.75
2018-05-16T10:28:22.618Z,1681.88
2018-05-16T10:29:22.625Z,1389.38
2018-05-16T10:30:22.651Z,1170.00
2018-05-16T10:31:43.685Z,1080.00
2018-05-16T10:32:22.638Z,1141.88
2018-05-16T10:33:22.641Z,1209.38
2018-05-16T10:34:22.657Z,1226.25
2018-05-16T10:35:22.650Z,1282.50
2018-05-16T10:36:22.662Z,1411.88
2018-05-16T10:37:22.717Z,1518.75
2018-05-16T10:38:22.669Z,1501.88
2018-05-16T10:39:22.878Z,1395.00
2018-05-16T10:40:22.678Z,1265.63
2018-05-16T10:41:22.742Z,1125.00
2018-05-16T10:42:22.749Z,939.38
2018-05-16T10:43:22.689Z,742.50
2018-05-16T10:44:22.697Z,590.63
2018-05-16T10:45:22.834Z,506.25
2018-05-16T10:46:22.708Z,444.38
2018-05-16T10:47:22.710Z,388.13
2018-05-16T10:48:22.774Z,348.75
2018-05-16T10:49:22.720Z,343.13
2018-05-16T10:50:22.729Z,343.13
2018-05-16T10:51:22.722Z,365.63
2018-05-16T10:52:22.777Z,399.38
2018-05-16T10:53:47.563Z,427.50
2018-05-16T10:54:22.735Z,455.63
2018-05-16T10:55:22.763Z,489.38
2018-05-16T10:56:22.749Z,500.63
2018-05-16T10:57:22.891Z,495.00
2018-05-16T10:58:22.755Z,495.00
2018-05-16T10:59:22.762Z,489.38
2018-05-16T11:00:22.766Z,483.75
2018-05-16T11:01:22.768Z,483.75
2018-05-16T11:02:22.798Z,478.13
2018-05-16T11:03:22.847Z,478.13
2018-05-16T11:04:22.777Z,489.38
2018-05-16T11:05:22.773Z,495.00
2018-05-16T11:06:22.787Z,489.38
2018-05-16T11:07:37.533Z,478.13
2018-05-16T11:08:22.796Z,466.88
2018-05-16T11:09:22.809Z,461.25
2018-05-16T11:10:22.807Z,461.25
2018-05-16T11:11:22.797Z,455.63
2018-05-16T11:12:22.842Z,455.63
2018-05-16T11:13:22.797Z,461.25
2018-05-16T11:14:22.805Z,461.25
2018-05-16T11:15:22.802Z,450.00
2018-05-16T11:16:23.712Z,461.25
2018-05-16T11:17:22.810Z,472.50
2018-05-16T11:18:23.602Z,478.13
2018-05-16T11:19:22.815Z,472.50
2018-05-16T11:20:22.818Z,466.88
2018-05-16T11:21:22.890Z,466.88
2018-05-16T11:22:22.995Z,466.88
2018-05-16T11:23:22.844Z,466.88
2018-05-16T11:24:22.831Z,461.25
2018-05-16T11:25:22.829Z,466.88
2018-05-16T11:26:22.883Z,489.38
2018-05-16T11:27:22.840Z,523.13
2018-05-16T11:28:22.836Z,556.88
2018-05-16T11:29:22.843Z,573.75
2018-05-16T11:30:22.865Z,590.63
2018-05-16T11:31:23.951Z,601.88
2018-05-16T11:32:22.849Z,618.75
2018-05-16T11:33:22.854Z,635.63
2018-05-16T11:34:22.871Z,646.88
2018-05-16T11:35:22.876Z,646.88
2018-05-16T11:36:22.869Z,635.63
2018-05-16T11:37:22.901Z,630.00
2018-05-16T11:38:22.860Z,635.63
2018-05-16T11:39:22.863Z,641.25
2018-05-16T11:40:22.863Z,641.25
2018-05-16T11:41:22.873Z,646.88
2018-05-16T11:42:22.924Z,646.88
2018-05-16T11:43:22.883Z,646.88
2018-05-16T11:44:22.905Z,658.13
2018-05-16T11:45:22.890Z,669.38
2018-05-16T11:46:24.703Z,680.63
2018-05-16T11:47:23.836Z,675.00
2018-05-16T11:48:27.527Z,675.00
2018-05-16T11:49:23.157Z,686.25
2018-05-16T11:50:22.910Z,691.88
2018-05-16T11:51:22.940Z,691.88
2018-05-16T11:52:22.897Z,691.88
2018-05-16T11:53:22.991Z,703.13
2018-05-16T11:54:22.914Z,703.13
2018-05-16T11:55:22.915Z,680.63
2018-05-16T11:56:22.958Z,658.13
2018-05-16T11:57:23.887Z,658.13
2018-05-16T11:58:22.923Z,703.13
2018-05-16T11:59:22.948Z,742.50
2018-05-16T12:00:22.937Z,753.75
2018-05-16T12:01:22.982Z,765.00
2018-05-16T12:02:22.946Z,759.38
2018-05-16T12:03:22.943Z,753.75
2018-05-16T12:04:22.943Z,759.38
2018-05-16T12:05:22.945Z,798.75
2018-05-16T12:06:22.996Z,860.63
2018-05-16T12:07:22.943Z,939.38
2018-05-16T12:08:22.939Z,984.38
2018-05-16T12:09:22.955Z,990.00
2018-05-16T12:10:22.957Z,990.00
2018-05-16T12:11:22.985Z,945.00
2018-05-16T12:12:23.013Z,900.00
2018-05-16T12:13:22.960Z,860.63
2018-05-16T12:14:22.963Z,821.25
2018-05-16T12:15:22.966Z,781.88
2018-05-16T12:16:23.079Z,742.50
2018-05-16T12:17:22.971Z,731.25
2018-05-16T12:18:22.971Z,736.88
2018-05-16T12:19:22.983Z,787.50
2018-05-16T12:20:22.979Z,815.63
2018-05-16T12:21:22.978Z,855.00
2018-05-16T12:22:23.051Z,900.00
2018-05-16T12:23:22.991Z,933.75
2018-05-16T12:24:22.994Z,978.75
2018-05-16T12:25:23.000Z,1012.50
2018-05-16T12:26:23.292Z,1035.00
2018-05-16T12:27:23.057Z,1018.13
2018-05-16T12:28:23.014Z,1012.50
2018-05-16T12:29:23.143Z,1040.63
2018-05-16T12:30:23.019Z,1074.38
2018-05-16T12:31:23.025Z,1096.88
2018-05-16T12:32:26.587Z,1108.13
2018-05-16T12:33:23.026Z,1108.13
2018-05-16T12:34:23.019Z,1141.88
2018-05-16T12:35:23.027Z,1181.25
2018-05-16T12:36:23.026Z,1192.50
2018-05-16T12:41:58.028Z,1608.75
2018-05-16T12:42:57.972Z,1614.38
2018-05-16T12:43:57.982Z,1569.38
2018-05-16T12:44:57.978Z,1586.25
2018-05-16T12:45:57.977Z,1721.25
2018-05-16T12:46:58.033Z,1923.75
2018-05-16T12:47:57.973Z,2036.25
2018-05-16T12:48:57.985Z,2160.00
2018-05-16T12:49:58.177Z,2334.38
2018-05-16T12:50:58.541Z,2840.63
2018-05-16T12:51:58.384Z,2086.88
2018-05-16T12:52:58.062Z,2081.25
2018-05-16T12:53:58.042Z,2008.13
2018-05-16T12:54:58.006Z,2109.38
2018-05-16T12:55:58.015Z,2205.00
2018-05-16T12:56:58.042Z,1963.13
2018-05-16T12:58:08.580Z,1693.13
2018-05-16T12:58:58.023Z,1546.88
2018-05-16T12:59:58.027Z,1473.75
2018-05-16T13:00:58.051Z,1428.75
2018-05-16T13:01:58.275Z,1428.75
2018-05-16T13:02:58.054Z,1496.25
2018-05-16T13:03:58.067Z,1563.75
2018-05-16T13:04:58.079Z,1586.25
2018-05-16T13:05:58.063Z,1608.75
2018-05-16T13:06:58.226Z,1659.38
2018-05-16T13:07:58.090Z,1659.38
2018-05-16T13:08:58.102Z,1665.00
2018-05-16T13:09:58.102Z,1670.63
2018-05-16T13:10:58.112Z,1738.13
2018-05-16T13:11:58.132Z,1743.75
2018-05-16T13:12:58.208Z,1642.50
2018-05-16T13:13:58.131Z,1513.13
2018-05-16T13:14:58.139Z,1451.25
2018-05-16T13:15:58.152Z,1400.63
2018-05-16T13:16:58.722Z,1417.50